sensor_id;sensor_type;location;lat;lon;timestamp;temperature;humidity
33207;DHT22;19565;46.602;11.534;2023-07-13T00:02:04;20.80;99.90
33207;DHT22;19565;46.602;11.534;2023-07-13T00:04:32;20.80;99.90
33207;DHT22;19565;46.602;11.534;2023-07-13T00:07:02;20.90;99.90
33207;DHT22;19565;46.602;11.534;2023-07-13T00:09:30;20.80;99.90
33207;DHT22;19565;46.602;11.534;2023-07-13T00:11:58;20.80;99.90
33207;DHT22;19565;46.602;11.534;2023-07-13T00:14:27;20.90;99.90
33207;DHT22;19565;46.602;11.534;2023-07-13T00:16:56;21.00;99.90
33207;DHT22;19565;46.602;11.534;2023-07-13T00:19:27;21.10;99.90
33207;DHT22;19565;46.602;11.534;2023-07-13T00:21:55;21.00;99.90
33207;DHT22;19565;46.602;11.534;2023-07-13T00:24:25;20.80;99.90
33207;DHT22;19565;46.602;11.534;2023-07-13T00:26:54;20.70;99.90
33207;DHT22;19565;46.602;11.534;2023-07-13T00:29:22;20.70;99.90
33207;DHT22;19565;46.602;11.534;2023-07-13T00:31:50;20.80;99.90
33207;DHT22;19565;46.602;11.534;2023-07-13T00:34:18;21.10;99.90
33207;DHT22;19565;46.602;11.534;2023-07-13T00:36:46;21.20;99.90
33207;DHT22;19565;46.602;11.534;2023-07-13T00:39:14;21.20;99.90
33207;DHT22;19565;46.602;11.534;2023-07-13T00:41:44;21.10;99.90
33207;DHT22;19565;46.602;11.534;2023-07-13T00:44:14;21.20;99.90
33207;DHT22;19565;46.602;11.534;2023-07-13T00:46:42;21.30;99.90
33207;DHT22;19565;46.602;11.534;2023-07-13T00:49:14;21.40;99.90
33207;DHT22;19565;46.602;11.534;2023-07-13T00:51:46;21.30;99.90
33207;DHT22;19565;46.602;11.534;2023-07-13T00:54:19;21.40;99.90
33207;DHT22;19565;46.602;11.534;2023-07-13T00:56:52;21.40;99.90
33207;DHT22;19565;46.602;11.534;2023-07-13T00:59:21;21.40;99.90
33207;DHT22;19565;46.602;11.534;2023-07-13T01:01:50;21.30;99.90
33207;DHT22;19565;46.602;11.534;2023-07-13T01:04:19;21.30;99.90
33207;DHT22;19565;46.602;11.534;2023-07-13T01:06:47;21.30;99.90
33207;DHT22;19565;46.602;11.534;2023-07-13T01:09:15;21.30;99.90
33207;DHT22;19565;46.602;11.534;2023-07-13T01:11:44;21.30;99.90
33207;DHT22;19565;46.602;11.534;2023-07-13T01:14:14;21.10;99.90
33207;DHT22;19565;46.602;11.534;2023-07-13T01:16:45;21.00;99.90
33207;DHT22;19565;46.602;11.534;2023-07-13T01:19:24;21.10;99.90
33207;DHT22;19565;46.602;11.534;2023-07-13T01:21:58;21.10;99.90
33207;DHT22;19565;46.602;11.534;2023-07-13T01:24:25;21.00;99.90
33207;DHT22;19565;46.602;11.534;2023-07-13T01:26:53;21.00;99.90
33207;DHT22;19565;46.602;11.534;2023-07-13T01:29:22;20.90;99.90
33207;DHT22;19565;46.602;11.534;2023-07-13T01:31:50;20.90;99.90
33207;DHT22;19565;46.602;11.534;2023-07-13T01:34:18;20.80;99.90
33207;DHT22;19565;46.602;11.534;2023-07-13T01:36:46;20.50;99.90
33207;DHT22;19565;46.602;11.534;2023-07-13T01:39:15;20.50;99.90
33207;DHT22;19565;46.602;11.534;2023-07-13T01:41:43;20.40;99.90
33207;DHT22;19565;46.602;11.534;2023-07-13T01:44:11;20.50;99.90
33207;DHT22;19565;46.602;11.534;2023-07-13T01:46:40;20.60;99.90
33207;DHT22;19565;46.602;11.534;2023-07-13T01:49:08;20.70;99.90
33207;DHT22;19565;46.602;11.534;2023-07-13T01:51:36;20.40;99.90
33207;DHT22;19565;46.602;11.534;2023-07-13T01:54:04;20.20;99.90
33207;DHT22;19565;46.602;11.534;2023-07-13T01:56:33;20.10;99.90
33207;DHT22;19565;46.602;11.534;2023-07-13T01:59:01;20.00;99.90
33207;DHT22;19565;46.602;11.534;2023-07-13T02:01:29;19.90;99.90
33207;DHT22;19565;46.602;11.534;2023-07-13T02:03:58;19.80;99.90
33207;DHT22;19565;46.602;11.534;2023-07-13T02:06:26;19.80;99.90
33207;DHT22;19565;46.602;11.534;2023-07-13T02:08:54;19.70;99.90
33207;DHT22;19565;46.602;11.534;2023-07-13T02:11:22;19.80;99.90
33207;DHT22;19565;46.602;11.534;2023-07-13T02:13:52;19.70;99.90
33207;DHT22;19565;46.602;11.534;2023-07-13T02:16:20;19.70;99.90
33207;DHT22;19565;46.602;11.534;2023-07-13T02:18:48;19.70;99.90
33207;DHT22;19565;46.602;11.534;2023-07-13T02:21:19;19.70;99.90
33207;DHT22;19565;46.602;11.534;2023-07-13T02:23:46;19.60;99.90
33207;DHT22;19565;46.602;11.534;2023-07-13T02:26:15;19.70;99.90
33207;DHT22;19565;46.602;11.534;2023-07-13T02:28:43;19.70;99.90
33207;DHT22;19565;46.602;11.534;2023-07-13T02:31:15;19.70;99.90
33207;DHT22;19565;46.602;11.534;2023-07-13T02:33:43;19.80;99.90
33207;DHT22;19565;46.602;11.534;2023-07-13T02:36:11;19.80;99.90
33207;DHT22;19565;46.602;11.534;2023-07-13T02:38:40;19.80;99.90
33207;DHT22;19565;46.602;11.534;2023-07-13T02:41:09;19.70;99.90
33207;DHT22;19565;46.602;11.534;2023-07-13T02:43:37;19.70;99.90
33207;DHT22;19565;46.602;11.534;2023-07-13T02:46:05;19.90;99.90
33207;DHT22;19565;46.602;11.534;2023-07-13T02:48:37;20.10;99.90
33207;DHT22;19565;46.602;11.534;2023-07-13T02:51:06;20.30;99.90
33207;DHT22;19565;46.602;11.534;2023-07-13T02:53:35;20.40;99.90
33207;DHT22;19565;46.602;11.534;2023-07-13T02:56:04;20.40;99.90
33207;DHT22;19565;46.602;11.534;2023-07-13T02:58:33;20.30;99.90
33207;DHT22;19565;46.602;11.534;2023-07-13T03:01:06;20.10;99.90
33207;DHT22;19565;46.602;11.534;2023-07-13T03:03:36;20.00;99.90
33207;DHT22;19565;46.602;11.534;2023-07-13T03:06:05;19.90;99.90
33207;DHT22;19565;46.602;11.534;2023-07-13T03:08:35;19.80;99.90
33207;DHT22;19565;46.602;11.534;2023-07-13T03:11:06;19.90;99.90
33207;DHT22;19565;46.602;11.534;2023-07-13T03:13:34;20.00;99.90
33207;DHT22;19565;46.602;11.534;2023-07-13T03:16:03;20.10;99.90
33207;DHT22;19565;46.602;11.534;2023-07-13T03:18:32;20.20;99.90
33207;DHT22;19565;46.602;11.534;2023-07-13T03:21:02;20.00;99.90
33207;DHT22;19565;46.602;11.534;2023-07-13T03:23:30;19.80;99.90
33207;DHT22;19565;46.602;11.534;2023-07-13T03:26:03;19.70;99.90
33207;DHT22;19565;46.602;11.534;2023-07-13T03:28:31;19.90;99.90
33207;DHT22;19565;46.602;11.534;2023-07-13T03:31:00;20.00;99.90
33207;DHT22;19565;46.602;11.534;2023-07-13T03:33:28;20.10;99.90
33207;DHT22;19565;46.602;11.534;2023-07-13T03:35:56;20.20;99.90
33207;DHT22;19565;46.602;11.534;2023-07-13T03:38:26;20.30;99.90
33207;DHT22;19565;46.602;11.534;2023-07-13T03:40:54;20.20;99.90
33207;DHT22;19565;46.602;11.534;2023-07-13T03:43:22;20.10;99.90
33207;DHT22;19565;46.602;11.534;2023-07-13T03:45:50;19.70;99.90
33207;DHT22;19565;46.602;11.534;2023-07-13T03:48:18;19.50;99.90
33207;DHT22;19565;46.602;11.534;2023-07-13T03:50:47;19.40;99.90
33207;DHT22;19565;46.602;11.534;2023-07-13T03:53:16;19.30;99.90
33207;DHT22;19565;46.602;11.534;2023-07-13T03:55:46;19.30;99.90
33207;DHT22;19565;46.602;11.534;2023-07-13T03:58:27;19.20;99.90
33207;DHT22;19565;46.602;11.534;2023-07-13T04:00:56;19.10;99.90
33207;DHT22;19565;46.602;11.534;2023-07-13T04:03:25;19.10;99.90
33207;DHT22;19565;46.602;11.534;2023-07-13T04:05:55;19.10;99.90
33207;DHT22;19565;46.602;11.534;2023-07-13T04:08:27;19.20;99.90
33207;DHT22;19565;46.602;11.534;2023-07-13T04:10:57;19.20;99.90
33207;DHT22;19565;46.602;11.534;2023-07-13T04:13:26;19.30;99.90
33207;DHT22;19565;46.602;11.534;2023-07-13T04:15:54;19.40;99.90
33207;DHT22;19565;46.602;11.534;2023-07-13T04:18:23;19.50;99.90
33207;DHT22;19565;46.602;11.534;2023-07-13T04:20:51;19.70;99.90
33207;DHT22;19565;46.602;11.534;2023-07-13T04:23:19;19.80;99.90
33207;DHT22;19565;46.602;11.534;2023-07-13T04:25:48;19.80;99.90
33207;DHT22;19565;46.602;11.534;2023-07-13T04:28:21;19.90;99.90
33207;DHT22;19565;46.602;11.534;2023-07-13T04:30:50;20.00;99.90
33207;DHT22;19565;46.602;11.534;2023-07-13T04:33:18;20.10;99.90
33207;DHT22;19565;46.602;11.534;2023-07-13T04:35:49;20.20;99.90
33207;DHT22;19565;46.602;11.534;2023-07-13T04:38:17;20.20;99.90
33207;DHT22;19565;46.602;11.534;2023-07-13T04:40:45;20.20;99.90
33207;DHT22;19565;46.602;11.534;2023-07-13T04:43:13;20.30;99.90
33207;DHT22;19565;46.602;11.534;2023-07-13T04:45:43;20.30;99.90
33207;DHT22;19565;46.602;11.534;2023-07-13T04:48:11;20.20;99.90
33207;DHT22;19565;46.602;11.534;2023-07-13T04:50:39;19.90;99.90
33207;DHT22;19565;46.602;11.534;2023-07-13T04:53:07;19.70;99.90
33207;DHT22;19565;46.602;11.534;2023-07-13T04:55:36;19.70;99.90
33207;DHT22;19565;46.602;11.534;2023-07-13T04:58:04;19.70;99.90
33207;DHT22;19565;46.602;11.534;2023-07-13T05:00:32;19.60;99.90
33207;DHT22;19565;46.602;11.534;2023-07-13T05:03:03;19.50;99.90
33207;DHT22;19565;46.602;11.534;2023-07-13T05:05:31;19.50;99.90
33207;DHT22;19565;46.602;11.534;2023-07-13T05:07:59;19.70;99.90
33207;DHT22;19565;46.602;11.534;2023-07-13T05:10:28;19.70;99.90
33207;DHT22;19565;46.602;11.534;2023-07-13T05:12:56;19.70;99.90
33207;DHT22;19565;46.602;11.534;2023-07-13T05:15:24;19.90;99.90
33207;DHT22;19565;46.602;11.534;2023-07-13T05:17:53;20.00;99.90
33207;DHT22;19565;46.602;11.534;2023-07-13T05:20:22;20.20;99.90
33207;DHT22;19565;46.602;11.534;2023-07-13T05:22:50;20.30;99.90
33207;DHT22;19565;46.602;11.534;2023-07-13T05:25:18;20.20;99.90
33207;DHT22;19565;46.602;11.534;2023-07-13T05:27:46;20.00;99.90
33207;DHT22;19565;46.602;11.534;2023-07-13T05:30:15;19.80;99.90
33207;DHT22;19565;46.602;11.534;2023-07-13T05:32:43;19.80;99.90
33207;DHT22;19565;46.602;11.534;2023-07-13T05:35:11;19.90;99.90
33207;DHT22;19565;46.602;11.534;2023-07-13T05:37:40;20.00;99.90
33207;DHT22;19565;46.602;11.534;2023-07-13T05:40:09;20.10;99.90
33207;DHT22;19565;46.602;11.534;2023-07-13T05:42:37;20.10;99.90
33207;DHT22;19565;46.602;11.534;2023-07-13T05:45:06;20.20;99.90
33207;DHT22;19565;46.602;11.534;2023-07-13T05:47:34;20.10;99.90
33207;DHT22;19565;46.602;11.534;2023-07-13T05:50:02;20.00;99.90
33207;DHT22;19565;46.602;11.534;2023-07-13T05:52:32;20.00;99.90
33207;DHT22;19565;46.602;11.534;2023-07-13T05:55:01;20.10;99.90
33207;DHT22;19565;46.602;11.534;2023-07-13T05:57:30;20.20;99.90
33207;DHT22;19565;46.602;11.534;2023-07-13T05:59:58;20.30;99.90
33207;DHT22;19565;46.602;11.534;2023-07-13T06:02:28;20.40;99.90
33207;DHT22;19565;46.602;11.534;2023-07-13T06:04:56;20.40;99.90
33207;DHT22;19565;46.602;11.534;2023-07-13T06:07:24;20.30;99.90
33207;DHT22;19565;46.602;11.534;2023-07-13T06:09:52;20.40;99.90
33207;DHT22;19565;46.602;11.534;2023-07-13T06:12:22;20.50;99.90
33207;DHT22;19565;46.602;11.534;2023-07-13T06:14:50;20.60;99.90
33207;DHT22;19565;46.602;11.534;2023-07-13T06:17:18;20.60;99.90
33207;DHT22;19565;46.602;11.534;2023-07-13T06:19:46;20.70;99.90
33207;DHT22;19565;46.602;11.534;2023-07-13T06:22:14;20.80;99.90
33207;DHT22;19565;46.602;11.534;2023-07-13T06:24:42;20.90;99.90
33207;DHT22;19565;46.602;11.534;2023-07-13T06:27:10;20.80;99.90
33207;DHT22;19565;46.602;11.534;2023-07-13T06:29:39;20.80;99.90
33207;DHT22;19565;46.602;11.534;2023-07-13T06:32:08;20.90;99.90
33207;DHT22;19565;46.602;11.534;2023-07-13T06:34:36;20.90;99.90
33207;DHT22;19565;46.602;11.534;2023-07-13T06:37:08;21.00;99.90
33207;DHT22;19565;46.602;11.534;2023-07-13T06:39:36;20.80;99.90
33207;DHT22;19565;46.602;11.534;2023-07-13T06:42:05;20.80;99.90
33207;DHT22;19565;46.602;11.534;2023-07-13T06:44:33;20.90;99.90
33207;DHT22;19565;46.602;11.534;2023-07-13T06:47:03;21.00;99.90
33207;DHT22;19565;46.602;11.534;2023-07-13T06:49:31;21.10;99.90
33207;DHT22;19565;46.602;11.534;2023-07-13T06:51:59;21.20;99.90
33207;DHT22;19565;46.602;11.534;2023-07-13T06:54:27;21.20;99.90
33207;DHT22;19565;46.602;11.534;2023-07-13T06:56:55;21.30;99.90
33207;DHT22;19565;46.602;11.534;2023-07-13T06:59:23;21.20;99.90
33207;DHT22;19565;46.602;11.534;2023-07-13T07:01:51;20.90;99.90
33207;DHT22;19565;46.602;11.534;2023-07-13T07:04:21;20.90;99.90
33207;DHT22;19565;46.602;11.534;2023-07-13T07:06:49;20.80;99.90
33207;DHT22;19565;46.602;11.534;2023-07-13T07:09:17;20.70;99.90
33207;DHT22;19565;46.602;11.534;2023-07-13T07:11:45;20.70;99.90
33207;DHT22;19565;46.602;11.534;2023-07-13T07:14:29;20.70;99.90
33207;DHT22;19565;46.602;11.534;2023-07-13T07:16:57;20.70;99.90
33207;DHT22;19565;46.602;11.534;2023-07-13T07:19:29;20.70;99.90
33207;DHT22;19565;46.602;11.534;2023-07-13T07:21:57;20.60;99.90
33207;DHT22;19565;46.602;11.534;2023-07-13T07:24:25;20.80;99.90
33207;DHT22;19565;46.602;11.534;2023-07-13T07:26:53;20.90;99.90
33207;DHT22;19565;46.602;11.534;2023-07-13T07:29:24;21.00;99.90
33207;DHT22;19565;46.602;11.534;2023-07-13T07:31:58;21.00;99.90
33207;DHT22;19565;46.602;11.534;2023-07-13T07:34:45;20.90;99.90
33207;DHT22;19565;46.602;11.534;2023-07-13T07:37:14;21.00;99.90
33207;DHT22;19565;46.602;11.534;2023-07-13T07:39:45;20.90;99.90
33207;DHT22;19565;46.602;11.534;2023-07-13T07:42:33;20.70;99.90
33207;DHT22;19565;46.602;11.534;2023-07-13T07:45:01;20.70;99.90
33207;DHT22;19565;46.602;11.534;2023-07-13T07:47:29;20.80;99.90
33207;DHT22;19565;46.602;11.534;2023-07-13T07:49:58;20.90;99.90
33207;DHT22;19565;46.602;11.534;2023-07-13T07:52:26;21.00;99.90
33207;DHT22;19565;46.602;11.534;2023-07-13T07:54:55;21.00;99.90
33207;DHT22;19565;46.602;11.534;2023-07-13T07:57:43;21.10;99.90
33207;DHT22;19565;46.602;11.534;2023-07-13T08:00:15;21.10;99.90
33207;DHT22;19565;46.602;11.534;2023-07-13T08:02:46;21.30;99.90
33207;DHT22;19565;46.602;11.534;2023-07-13T08:05:19;21.40;99.90
33207;DHT22;19565;46.602;11.534;2023-07-13T08:08:05;21.50;99.90
33207;DHT22;19565;46.602;11.534;2023-07-13T08:10:36;21.60;99.90
33207;DHT22;19565;46.602;11.534;2023-07-13T08:13:04;21.60;99.90
33207;DHT22;19565;46.602;11.534;2023-07-13T08:15:37;21.60;99.90
33207;DHT22;19565;46.602;11.534;2023-07-13T08:18:05;21.60;99.90
33207;DHT22;19565;46.602;11.534;2023-07-13T08:20:38;21.60;99.90
33207;DHT22;19565;46.602;11.534;2023-07-13T08:23:07;21.40;99.90
33207;DHT22;19565;46.602;11.534;2023-07-13T08:25:37;21.60;99.90
33207;DHT22;19565;46.602;11.534;2023-07-13T08:28:05;21.60;99.90
33207;DHT22;19565;46.602;11.534;2023-07-13T08:30:33;21.60;99.90
33207;DHT22;19565;46.602;11.534;2023-07-13T08:33:01;21.60;99.90
33207;DHT22;19565;46.602;11.534;2023-07-13T08:35:29;21.60;99.90
33207;DHT22;19565;46.602;11.534;2023-07-13T08:37:58;21.60;99.90
33207;DHT22;19565;46.602;11.534;2023-07-13T08:40:27;21.60;99.90
33207;DHT22;19565;46.602;11.534;2023-07-13T08:42:58;21.70;99.90
33207;DHT22;19565;46.602;11.534;2023-07-13T08:45:32;21.90;99.90
33207;DHT22;19565;46.602;11.534;2023-07-13T08:48:07;21.90;99.90
33207;DHT22;19565;46.602;11.534;2023-07-13T08:50:46;22.00;99.90
33207;DHT22;19565;46.602;11.534;2023-07-13T08:53:32;22.00;99.90
33207;DHT22;19565;46.602;11.534;2023-07-13T08:56:02;22.00;99.90
33207;DHT22;19565;46.602;11.534;2023-07-13T08:58:32;22.00;99.90
33207;DHT22;19565;46.602;11.534;2023-07-13T09:01:08;22.10;99.90
33207;DHT22;19565;46.602;11.534;2023-07-13T09:03:42;22.20;99.90
33207;DHT22;19565;46.602;11.534;2023-07-13T09:06:15;22.30;99.90
33207;DHT22;19565;46.602;11.534;2023-07-13T09:08:54;22.50;99.90
33207;DHT22;19565;46.602;11.534;2023-07-13T09:11:40;22.60;99.90
33207;DHT22;19565;46.602;11.534;2023-07-13T09:14:33;22.80;99.90
33207;DHT22;19565;46.602;11.534;2023-07-13T09:17:04;23.00;99.90
33207;DHT22;19565;46.602;11.534;2023-07-13T09:19:34;22.90;99.90
33207;DHT22;19565;46.602;11.534;2023-07-13T09:22:05;23.00;99.90
33207;DHT22;19565;46.602;11.534;2023-07-13T09:24:41;22.90;99.90
33207;DHT22;19565;46.602;11.534;2023-07-13T09:27:18;22.80;99.90
33207;DHT22;19565;46.602;11.534;2023-07-13T09:29:49;22.80;99.90
33207;DHT22;19565;46.602;11.534;2023-07-13T09:32:21;22.80;99.90
33207;DHT22;19565;46.602;11.534;2023-07-13T09:34:52;22.90;99.90
33207;DHT22;19565;46.602;11.534;2023-07-13T09:37:23;22.90;99.90
33207;DHT22;19565;46.602;11.534;2023-07-13T09:39:58;22.90;99.90
33207;DHT22;19565;46.602;11.534;2023-07-13T09:42:27;23.00;99.90
33207;DHT22;19565;46.602;11.534;2023-07-13T09:44:59;23.20;99.90
33207;DHT22;19565;46.602;11.534;2023-07-13T09:47:31;23.30;99.90
33207;DHT22;19565;46.602;11.534;2023-07-13T09:50:00;23.40;99.90
33207;DHT22;19565;46.602;11.534;2023-07-13T09:52:41;23.40;99.70
33207;DHT22;19565;46.602;11.534;2023-07-13T09:55:30;23.40;99.60
33207;DHT22;19565;46.602;11.534;2023-07-13T09:57:59;23.40;99.30
33207;DHT22;19565;46.602;11.534;2023-07-13T10:00:32;23.40;98.90
33207;DHT22;19565;46.602;11.534;2023-07-13T10:03:02;23.40;99.20
33207;DHT22;19565;46.602;11.534;2023-07-13T10:05:39;23.40;99.00
33207;DHT22;19565;46.602;11.534;2023-07-13T10:08:20;23.50;99.20
33207;DHT22;19565;46.602;11.534;2023-07-13T10:10:57;23.50;99.20
33207;DHT22;19565;46.602;11.534;2023-07-13T10:13:32;23.50;99.30
33207;DHT22;19565;46.602;11.534;2023-07-13T10:16:04;23.60;99.60
33207;DHT22;19565;46.602;11.534;2023-07-13T10:18:39;23.60;99.90
33207;DHT22;19565;46.602;11.534;2023-07-13T10:21:12;23.70;99.90
33207;DHT22;19565;46.602;11.534;2023-07-13T10:24:05;23.70;99.90
33207;DHT22;19565;46.602;11.534;2023-07-13T10:26:46;23.70;99.90
33207;DHT22;19565;46.602;11.534;2023-07-13T10:29:16;23.80;99.90
33207;DHT22;19565;46.602;11.534;2023-07-13T10:31:46;23.80;99.50
33207;DHT22;19565;46.602;11.534;2023-07-13T10:34:14;23.80;99.50
33207;DHT22;19565;46.602;11.534;2023-07-13T10:36:44;23.80;99.00
33207;DHT22;19565;46.602;11.534;2023-07-13T10:39:16;23.80;98.90
33207;DHT22;19565;46.602;11.534;2023-07-13T10:41:50;23.70;99.40
33207;DHT22;19565;46.602;11.534;2023-07-13T10:44:22;23.70;99.00
33207;DHT22;19565;46.602;11.534;2023-07-13T10:46:55;23.60;98.60
33207;DHT22;19565;46.602;11.534;2023-07-13T10:49:25;23.60;98.90
33207;DHT22;19565;46.602;11.534;2023-07-13T10:51:54;23.60;99.20
33207;DHT22;19565;46.602;11.534;2023-07-13T10:54:27;23.70;99.80
33207;DHT22;19565;46.602;11.534;2023-07-13T10:57:15;23.70;99.90
33207;DHT22;19565;46.602;11.534;2023-07-13T10:59:47;23.70;99.90
33207;DHT22;19565;46.602;11.534;2023-07-13T11:02:23;23.70;99.80
33207;DHT22;19565;46.602;11.534;2023-07-13T11:04:55;23.60;99.90
33207;DHT22;19565;46.602;11.534;2023-07-13T11:07:26;23.70;99.90
33207;DHT22;19565;46.602;11.534;2023-07-13T11:09:55;23.70;99.70
33207;DHT22;19565;46.602;11.534;2023-07-13T11:12:52;23.70;99.90
33207;DHT22;19565;46.602;11.534;2023-07-13T11:15:33;23.70;99.90
33207;DHT22;19565;46.602;11.534;2023-07-13T11:18:20;23.70;98.80
33207;DHT22;19565;46.602;11.534;2023-07-13T11:20:49;23.70;98.90
33207;DHT22;19565;46.602;11.534;2023-07-13T11:23:29;23.80;98.90
33207;DHT22;19565;46.602;11.534;2023-07-13T11:25:59;23.90;98.00
33207;DHT22;19565;46.602;11.534;2023-07-13T11:28:32;24.00;97.40
33207;DHT22;19565;46.602;11.534;2023-07-13T11:31:15;24.10;98.50
33207;DHT22;19565;46.602;11.534;2023-07-13T11:33:57;24.20;97.70
33207;DHT22;19565;46.602;11.534;2023-07-13T11:36:31;24.20;97.30
33207;DHT22;19565;46.602;11.534;2023-07-13T11:39:05;24.30;97.20
33207;DHT22;19565;46.602;11.534;2023-07-13T11:41:44;24.30;97.00
33207;DHT22;19565;46.602;11.534;2023-07-13T11:44:17;24.40;96.90
33207;DHT22;19565;46.602;11.534;2023-07-13T11:46:47;24.60;97.00
33207;DHT22;19565;46.602;11.534;2023-07-13T11:49:19;24.60;97.10
33207;DHT22;19565;46.602;11.534;2023-07-13T11:51:51;24.80;97.00
33207;DHT22;19565;46.602;11.534;2023-07-13T11:54:25;24.90;96.20
33207;DHT22;19565;46.602;11.534;2023-07-13T11:56:56;25.00;95.20
33207;DHT22;19565;46.602;11.534;2023-07-13T11:59:29;25.10;95.40
33207;DHT22;19565;46.602;11.534;2023-07-13T12:01:59;25.20;95.20
33207;DHT22;19565;46.602;11.534;2023-07-13T12:04:32;25.20;94.40
33207;DHT22;19565;46.602;11.534;2023-07-13T12:07:06;25.10;93.60
33207;DHT22;19565;46.602;11.534;2023-07-13T12:09:36;25.10;94.10
33207;DHT22;19565;46.602;11.534;2023-07-13T12:12:10;25.10;94.50
33207;DHT22;19565;46.602;11.534;2023-07-13T12:14:41;25.20;94.80
33207;DHT22;19565;46.602;11.534;2023-07-13T12:17:13;25.10;95.20
33207;DHT22;19565;46.602;11.534;2023-07-13T12:19:42;25.10;95.80
33207;DHT22;19565;46.602;11.534;2023-07-13T12:22:12;25.10;96.70
33207;DHT22;19565;46.602;11.534;2023-07-13T12:24:41;25.10;97.70
33207;DHT22;19565;46.602;11.534;2023-07-13T12:27:18;25.00;97.90
33207;DHT22;19565;46.602;11.534;2023-07-13T12:29:51;24.90;99.00
33207;DHT22;19565;46.602;11.534;2023-07-13T12:32:21;24.80;98.20
33207;DHT22;19565;46.602;11.534;2023-07-13T12:34:53;24.60;97.70
33207;DHT22;19565;46.602;11.534;2023-07-13T12:37:22;24.60;98.00
33207;DHT22;19565;46.602;11.534;2023-07-13T12:39:51;24.50;98.40
33207;DHT22;19565;46.602;11.534;2023-07-13T12:42:21;24.50;99.30
33207;DHT22;19565;46.602;11.534;2023-07-13T12:44:57;24.50;99.90
33207;DHT22;19565;46.602;11.534;2023-07-13T12:47:27;24.40;99.90
33207;DHT22;19565;46.602;11.534;2023-07-13T12:49:57;24.40;99.90
33207;DHT22;19565;46.602;11.534;2023-07-13T12:52:30;24.30;99.90
33207;DHT22;19565;46.602;11.534;2023-07-13T12:55:05;24.20;99.90
33207;DHT22;19565;46.602;11.534;2023-07-13T12:57:40;24.20;99.90
33207;DHT22;19565;46.602;11.534;2023-07-13T13:00:22;24.20;99.90
33207;DHT22;19565;46.602;11.534;2023-07-13T13:02:52;24.10;99.90
33207;DHT22;19565;46.602;11.534;2023-07-13T13:05:34;24.10;99.90
33207;DHT22;19565;46.602;11.534;2023-07-13T13:08:04;24.00;99.90
33207;DHT22;19565;46.602;11.534;2023-07-13T13:10:32;24.00;99.90
33207;DHT22;19565;46.602;11.534;2023-07-13T13:13:02;23.90;99.90
33207;DHT22;19565;46.602;11.534;2023-07-13T13:15:32;23.90;99.90
33207;DHT22;19565;46.602;11.534;2023-07-13T13:18:00;23.80;99.90
33207;DHT22;19565;46.602;11.534;2023-07-13T13:20:28;23.80;99.90
33207;DHT22;19565;46.602;11.534;2023-07-13T13:22:56;23.80;99.90
33207;DHT22;19565;46.602;11.534;2023-07-13T13:25:25;23.90;99.90
33207;DHT22;19565;46.602;11.534;2023-07-13T13:27:53;24.00;99.90
33207;DHT22;19565;46.602;11.534;2023-07-13T13:30:21;24.00;99.90
33207;DHT22;19565;46.602;11.534;2023-07-13T13:32:50;24.10;99.90
33207;DHT22;19565;46.602;11.534;2023-07-13T13:35:20;24.00;99.90
33207;DHT22;19565;46.602;11.534;2023-07-13T13:37:48;23.90;99.90
33207;DHT22;19565;46.602;11.534;2023-07-13T13:40:19;23.80;99.90
33207;DHT22;19565;46.602;11.534;2023-07-13T13:42:48;23.80;99.90
33207;DHT22;19565;46.602;11.534;2023-07-13T13:45:17;23.90;99.90
33207;DHT22;19565;46.602;11.534;2023-07-13T13:47:47;23.90;99.90
33207;DHT22;19565;46.602;11.534;2023-07-13T13:50:19;24.00;99.90
33207;DHT22;19565;46.602;11.534;2023-07-13T13:52:49;24.10;99.90
33207;DHT22;19565;46.602;11.534;2023-07-13T13:55:20;24.20;99.90
33207;DHT22;19565;46.602;11.534;2023-07-13T13:57:50;24.30;99.90
33207;DHT22;19565;46.602;11.534;2023-07-13T14:00:20;24.40;99.90
33207;DHT22;19565;46.602;11.534;2023-07-13T14:02:48;24.40;99.90
33207;DHT22;19565;46.602;11.534;2023-07-13T14:05:22;24.40;99.90
33207;DHT22;19565;46.602;11.534;2023-07-13T14:07:52;24.40;99.90
33207;DHT22;19565;46.602;11.534;2023-07-13T14:10:21;24.50;99.90
33207;DHT22;19565;46.602;11.534;2023-07-13T14:12:52;24.60;99.90
33207;DHT22;19565;46.602;11.534;2023-07-13T14:15:22;24.90;99.90
33207;DHT22;19565;46.602;11.534;2023-07-13T14:17:51;25.00;99.90
33207;DHT22;19565;46.602;11.534;2023-07-13T14:20:23;24.90;99.90
33207;DHT22;19565;46.602;11.534;2023-07-13T14:22:52;24.90;99.90
33207;DHT22;19565;46.602;11.534;2023-07-13T14:25:22;24.80;99.90
33207;DHT22;19565;46.602;11.534;2023-07-13T14:27:55;24.70;99.90
33207;DHT22;19565;46.602;11.534;2023-07-13T14:30:26;24.50;99.90
33207;DHT22;19565;46.602;11.534;2023-07-13T14:32:54;24.40;99.90
33207;DHT22;19565;46.602;11.534;2023-07-13T14:35:23;24.20;99.90
33207;DHT22;19565;46.602;11.534;2023-07-13T14:37:51;24.20;99.90
33207;DHT22;19565;46.602;11.534;2023-07-13T14:40:25;24.20;99.90
33207;DHT22;19565;46.602;11.534;2023-07-13T14:42:54;24.20;99.90
33207;DHT22;19565;46.602;11.534;2023-07-13T14:45:22;24.20;99.90
33207;DHT22;19565;46.602;11.534;2023-07-13T14:47:51;24.20;99.90
33207;DHT22;19565;46.602;11.534;2023-07-13T14:50:30;24.10;99.90
33207;DHT22;19565;46.602;11.534;2023-07-13T14:53:00;24.10;99.90
33207;DHT22;19565;46.602;11.534;2023-07-13T14:55:28;24.10;99.90
33207;DHT22;19565;46.602;11.534;2023-07-13T14:57:56;24.10;99.90
33207;DHT22;19565;46.602;11.534;2023-07-13T15:00:25;24.20;99.90
33207;DHT22;19565;46.602;11.534;2023-07-13T15:02:56;24.20;99.90
33207;DHT22;19565;46.602;11.534;2023-07-13T15:05:26;24.20;99.90
33207;DHT22;19565;46.602;11.534;2023-07-13T15:07:57;24.20;99.90
33207;DHT22;19565;46.602;11.534;2023-07-13T15:10:29;24.30;99.90
33207;DHT22;19565;46.602;11.534;2023-07-13T15:13:00;24.20;99.90
33207;DHT22;19565;46.602;11.534;2023-07-13T15:15:32;24.70;99.90
33207;DHT22;19565;46.602;11.534;2023-07-13T15:18:01;25.70;99.90
33207;DHT22;19565;46.602;11.534;2023-07-13T15:20:32;26.60;98.50
33207;DHT22;19565;46.602;11.534;2023-07-13T15:23:02;27.90;96.00
33207;DHT22;19565;46.602;11.534;2023-07-13T15:25:33;29.40;92.80
33207;DHT22;19565;46.602;11.534;2023-07-13T15:28:01;30.60;89.00
33207;DHT22;19565;46.602;11.534;2023-07-13T15:30:34;31.50;85.40
33207;DHT22;19565;46.602;11.534;2023-07-13T15:33:11;32.10;82.40
33207;DHT22;19565;46.602;11.534;2023-07-13T15:35:40;32.10;80.70
33207;DHT22;19565;46.602;11.534;2023-07-13T15:38:17;31.70;80.10